Time;durP1;ratioP1;P1;durP2;ratioP2;P2;SDS_P1;SDS_P2;PMS_P1;PMS_P2;Temp;Humidity;BMP_temperature;BMP_pressure;BME280_temperature;BME280_humidity;BME280_pressure;Samples;Min_cycle;Max_cycle;Signal;HPM_P1;HPM_P2
2021/11/03 00:01:43;;;;;;;7.50;4.00;;;8.80;99.90;;;;;;5042076;28;20232;-81
2021/11/03 00:04:10;;;;;;;6.00;4.43;;;8.70;99.90;;;;;;5049856;28;20476;-81
2021/11/03 00:06:40;;;;;;;5.50;3.72;;;8.70;99.90;;;;;;5049809;28;20487;-81
2021/11/03 00:09:07;;;;;;;6.57;4.57;;;8.90;99.90;;;;;;5048382;28;20679;-81
2021/11/03 00:11:35;;;;;;;6.57;3.53;;;8.90;99.90;;;;;;5044641;28;20229;-82
2021/11/03 00:14:04;;;;;;;7.15;4.50;;;8.80;99.90;;;;;;5043258;28;20458;-81
2021/11/03 00:16:31;;;;;;;10.60;4.60;;;8.80;99.90;;;;;;5043717;28;20308;-81
2021/11/03 00:18:58;;;;;;;7.13;4.78;;;8.80;99.90;;;;;;5041349;28;20462;-83
2021/11/03 00:21:24;;;;;;;7.60;4.83;;;8.70;99.90;;;;;;5040917;28;20229;-80
2021/11/03 00:23:51;;;;;;;6.38;4.53;;;8.60;99.90;;;;;;5038292;28;20456;-80
2021/11/03 00:26:18;;;;;;;7.13;5.10;;;8.60;99.90;;;;;;5038037;28;20550;-80
2021/11/03 00:28:45;;;;;;;6.70;4.90;;;8.60;99.90;;;;;;5037042;28;20456;-81
2021/11/03 00:31:13;;;;;;;7.97;5.10;;;8.60;99.90;;;;;;5036963;28;20243;-80
2021/11/03 00:33:40;;;;;;;7.00;5.07;;;8.70;99.90;;;;;;5037522;28;20309;-80
2021/11/03 00:36:07;;;;;;;6.47;4.90;;;8.60;99.90;;;;;;5036341;28;20440;-80
2021/11/03 00:38:34;;;;;;;7.13;4.70;;;8.70;99.90;;;;;;5037470;28;20300;-80
2021/11/03 00:41:01;;;;;;;12.20;5.57;;;8.60;99.90;;;;;;5039120;28;20468;-80
2021/11/03 00:43:28;;;;;;;8.50;4.80;;;8.70;99.90;;;;;;5041866;28;20475;-80
2021/11/03 00:45:55;;;;;;;6.93;5.07;;;8.80;99.90;;;;;;5037394;28;20482;-81
2021/11/03 00:48:23;;;;;;;7.83;5.37;;;8.80;99.90;;;;;;5036799;28;20542;-81
2021/11/03 00:50:50;;;;;;;7.70;5.68;;;8.80;99.90;;;;;;5038029;28;20452;-80
2021/11/03 00:53:17;;;;;;;6.33;5.27;;;8.70;99.90;;;;;;5047169;28;20189;-80
2021/11/03 00:55:45;;;;;;;7.30;4.97;;;8.90;99.90;;;;;;5046981;28;20538;-80
2021/11/03 00:58:12;;;;;;;7.53;4.93;;;8.80;99.90;;;;;;5045677;28;20237;-80
2021/11/03 01:00:39;;;;;;;8.90;5.20;;;8.50;99.90;;;;;;5038894;28;20220;-80
2021/11/03 01:03:07;;;;;;;9.23;5.95;;;8.60;99.90;;;;;;5036490;28;20534;-80
2021/11/03 01:05:37;;;;;;;9.03;5.83;;;8.60;99.90;;;;;;5036316;28;20232;-80
2021/11/03 01:08:05;;;;;;;10.52;5.05;;;8.60;99.90;;;;;;5036062;28;20789;-80
2021/11/03 01:10:33;;;;;;;7.28;5.43;;;8.60;99.90;;;;;;5036413;28;20208;-80
2021/11/03 01:13:00;;;;;;;8.40;6.20;;;8.60;99.90;;;;;;5036459;28;20225;-82
2021/11/03 01:15:28;;;;;;;8.68;5.65;;;8.70;99.90;;;;;;5036499;28;20546;-80
2021/11/03 01:17:55;;;;;;;9.25;5.13;;;8.70;99.90;;;;;;5037197;28;20215;-80
2021/11/03 01:20:24;;;;;;;8.20;5.43;;;8.80;99.90;;;;;;5036418;28;20235;-81
2021/11/03 01:22:53;;;;;;;8.10;5.57;;;8.50;99.90;;;;;;5035620;28;20475;-81
2021/11/03 01:25:20;;;;;;;13.40;6.30;;;8.80;99.90;;;;;;5036437;28;20783;-81
2021/11/03 01:27:47;;;;;;;7.95;5.72;;;8.80;99.90;;;;;;5036443;28;20487;-80
2021/11/03 01:30:17;;;;;;;7.80;5.70;;;8.60;99.90;;;;;;5036012;28;20243;-80
2021/11/03 01:32:44;;;;;;;12.83;6.07;;;8.90;99.90;;;;;;5036355;28;20467;-81
2021/11/03 01:35:11;;;;;;;7.33;5.47;;;8.80;99.90;;;;;;5036120;28;20427;-80
2021/11/03 01:37:39;;;;;;;9.40;6.10;;;8.40;99.90;;;;;;5035756;28;20438;-80
2021/11/03 01:40:11;;;;;;;8.10;5.57;;;8.60;99.90;;;;;;5036407;28;20538;-80
2021/11/03 01:42:38;;;;;;;8.93;5.30;;;8.80;99.90;;;;;;5036088;28;20454;-81
2021/11/03 01:45:07;;;;;;;7.53;4.93;;;8.80;99.90;;;;;;5036766;28;20209;-80
2021/11/03 01:47:49;;;;;;;6.27;5.07;;;8.80;99.90;;;;;;5038317;28;20224;-80
2021/11/03 01:50:24;;;;;;;9.53;5.60;;;8.80;99.90;;;;;;5039817;28;20535;-80
2021/11/03 01:52:56;;;;;;;6.70;5.17;;;8.90;99.90;;;;;;5038988;28;20855;-80
2021/11/03 01:55:25;;;;;;;6.30;4.73;;;9.10;99.90;;;;;;5039461;28;20438;-81
2021/11/03 01:58:05;;;;;;;7.10;4.40;;;9.00;99.90;;;;;;5039237;28;20523;-81
2021/11/03 02:00:35;;;;;;;6.25;3.85;;;9.10;99.90;;;;;;5039274;28;20441;-80
2021/11/03 02:03:06;;;;;;;8.03;4.20;;;9.10;99.90;;;;;;5039751;28;20602;-80
2021/11/03 02:05:33;;;;;;;6.50;4.13;;;9.10;99.90;;;;;;5039805;28;20452;-80
2021/11/03 02:08:01;;;;;;;6.50;4.33;;;9.10;99.90;;;;;;5039546;28;20488;-80
2021/11/03 02:10:30;;;;;;;6.60;4.40;;;9.20;99.90;;;;;;5039772;28;20456;-81
2021/11/03 02:12:57;;;;;;;7.43;5.03;;;9.30;99.90;;;;;;5049010;28;20458;-80
2021/11/03 02:15:25;;;;;;;6.97;4.53;;;9.20;99.90;;;;;;5042402;28;20877;-81
2021/11/03 02:17:52;;;;;;;7.97;4.40;;;9.30;99.90;;;;;;5039465;28;20543;-81
2021/11/03 02:20:22;;;;;;;6.53;4.57;;;9.20;99.90;;;;;;5039683;28;20213;-80
2021/11/03 02:23:00;;;;;;;7.63;4.10;;;9.10;99.90;;;;;;5042356;28;20536;-80
2021/11/03 02:25:34;;;;;;;5.83;4.20;;;9.20;99.90;;;;;;5040331;28;20439;-80
2021/11/03 02:28:04;;;;;;;7.50;4.40;;;8.80;99.90;;;;;;5044898;28;20472;-80
2021/11/03 02:30:32;;;;;;;7.50;4.30;;;8.80;99.90;;;;;;5038241;28;20257;-80
2021/11/03 02:33:07;;;;;;;7.30;5.17;;;8.70;99.90;;;;;;5037080;28;20472;-80
2021/11/03 02:35:34;;;;;;;7.82;5.43;;;8.60;99.90;;;;;;5037584;28;20405;-80
2021/11/03 02:38:01;;;;;;;8.17;5.40;;;8.20;99.90;;;;;;5038741;28;20288;-80
2021/11/03 02:40:46;;;;;;;6.53;4.80;;;8.70;99.90;;;;;;5041832;28;20456;-80
2021/11/03 02:43:19;;;;;;;8.23;4.90;;;8.40;99.90;;;;;;5038685;28;20877;-81
2021/11/03 02:45:49;;;;;;;9.67;4.73;;;9.00;99.90;;;;;;5038618;28;20607;-80
2021/11/03 02:48:17;;;;;;;7.18;5.38;;;8.90;99.90;;;;;;5039115;28;20454;-80
2021/11/03 02:50:56;;;;;;;7.03;4.57;;;8.60;99.90;;;;;;5041726;28;20303;-80
2021/11/03 02:53:23;;;;;;;7.40;4.90;;;8.70;99.90;;;;;;5042803;28;20232;-80
2021/11/03 02:55:52;;;;;;;7.15;4.70;;;8.70;99.90;;;;;;5040577;28;20941;-81
2021/11/03 02:58:19;;;;;;;6.50;4.80;;;8.80;99.90;;;;;;5038948;28;20213;-81
2021/11/03 03:00:46;;;;;;;7.80;5.40;;;8.80;99.90;;;;;;5038183;28;20455;-80
2021/11/03 03:03:13;;;;;;;7.80;4.77;;;8.80;99.90;;;;;;5038321;28;20436;-80
2021/11/03 03:05:41;;;;;;;6.93;4.20;;;8.80;99.90;;;;;;5038618;28;20481;-80
2021/11/03 03:08:07;;;;;;;6.18;4.75;;;8.70;99.90;;;;;;5037568;28;20244;-80
2021/11/03 03:10:34;;;;;;;7.13;4.30;;;8.50;99.90;;;;;;5038309;28;20280;-80
2021/11/03 03:13:03;;;;;;;6.20;4.07;;;8.00;99.90;;;;;;5037728;28;20836;-80
2021/11/03 03:15:29;;;;;;;7.80;4.30;;;8.70;99.90;;;;;;5037215;28;20519;-81
2021/11/03 03:17:56;;;;;;;6.50;4.10;;;8.90;99.90;;;;;;5037448;28;20444;-81
2021/11/03 03:20:23;;;;;;;6.77;3.80;;;8.50;99.90;;;;;;5038325;28;21038;-80
2021/11/03 03:22:50;;;;;;;5.07;3.57;;;8.50;99.90;;;;;;5039836;28;20559;-80
2021/11/03 03:25:17;;;;;;;7.23;3.80;;;8.90;99.90;;;;;;5038386;28;20984;-80
2021/11/03 03:27:43;;;;;;;5.50;3.50;;;8.50;99.90;;;;;;5044422;28;20567;-80
2021/11/03 03:30:12;;;;;;;6.17;3.60;;;8.80;99.90;;;;;;5049014;28;20454;-80
2021/11/03 03:32:39;;;;;;;4.80;3.43;;;8.50;99.90;;;;;;5049651;28;20617;-80
2021/11/03 03:35:07;;;;;;;5.22;3.50;;;8.30;99.90;;;;;;5045030;28;20516;-80
2021/11/03 03:37:34;;;;;;;4.73;3.30;;;8.80;99.90;;;;;;5039956;28;20207;-80
2021/11/03 03:40:01;;;;;;;5.53;3.90;;;8.80;99.90;;;;;;5039244;28;20451;-80
2021/11/03 03:42:28;;;;;;;5.50;3.70;;;8.50;99.90;;;;;;5040945;28;20519;-80
2021/11/03 03:44:55;;;;;;;5.50;3.83;;;8.70;99.90;;;;;;5044019;28;20488;-80
2021/11/03 03:47:23;;;;;;;5.80;3.83;;;8.70;99.90;;;;;;5050975;28;20490;-80
2021/11/03 03:49:50;;;;;;;5.00;3.37;;;8.80;99.90;;;;;;5050103;28;20508;-80
2021/11/03 03:52:17;;;;;;;5.17;3.83;;;8.60;99.90;;;;;;5050523;28;20474;-80
2021/11/03 03:54:44;;;;;;;5.55;2.97;;;8.80;99.90;;;;;;5050562;28;20462;-79
2021/11/03 03:57:11;;;;;;;6.80;3.87;;;8.90;99.90;;;;;;5050753;28;20243;-80
2021/11/03 03:59:39;;;;;;;6.00;3.73;;;9.00;99.90;;;;;;5048139;28;20448;-80
2021/11/03 04:02:06;;;;;;;5.40;3.90;;;9.00;99.90;;;;;;5046201;28;20472;-80
2021/11/03 04:04:34;;;;;;;8.23;4.27;;;8.90;99.90;;;;;;5045818;28;20499;-80
2021/11/03 04:07:01;;;;;;;7.37;3.70;;;8.90;99.90;;;;;;5039854;28;20476;-80
2021/11/03 04:09:28;;;;;;;7.50;4.33;;;8.90;99.90;;;;;;5037670;28;20514;-80
2021/11/03 04:11:55;;;;;;;5.43;3.90;;;8.40;99.90;;;;;;5035556;28;20546;-80
2021/11/03 04:14:22;;;;;;;5.77;4.03;;;8.80;99.90;;;;;;5036436;28;20456;-80
2021/11/03 04:16:49;;;;;;;6.50;3.42;;;8.80;99.90;;;;;;5037596;28;20520;-80
2021/11/03 04:19:16;;;;;;;5.22;3.90;;;8.80;99.90;;;;;;5037852;28;20219;-80
2021/11/03 04:21:44;;;;;;;6.37;3.90;;;8.90;99.90;;;;;;5038892;28;20327;-80
2021/11/03 04:24:11;;;;;;;6.38;4.82;;;8.80;99.90;;;;;;5039962;28;20483;-80
2021/11/03 04:26:42;;;;;;;10.38;4.85;;;8.90;99.90;;;;;;5037524;28;20212;-80
2021/11/03 04:29:09;;;;;;;7.10;4.73;;;8.90;99.90;;;;;;5038285;28;20198;-80
2021/11/03 04:31:36;;;;;;;7.70;4.68;;;8.90;99.90;;;;;;5037630;28;20522;-80
2021/11/03 04:34:03;;;;;;;5.63;4.30;;;8.80;99.90;;;;;;5036882;28;20655;-80
2021/11/03 04:36:30;;;;;;;5.27;4.00;;;8.90;99.90;;;;;;5037176;28;20480;-80
2021/11/03 04:39:02;;;;;;;5.70;4.47;;;8.90;99.90;;;;;;5036716;28;20535;-80
2021/11/03 04:41:29;;;;;;;6.33;4.20;;;8.90;99.90;;;;;;5036872;28;20481;-81
2021/11/03 04:43:56;;;;;;;6.77;4.50;;;8.90;99.90;;;;;;5037277;28;20564;-80
2021/11/03 04:46:23;;;;;;;7.67;5.13;;;8.90;99.90;;;;;;5037466;28;20491;-80
2021/11/03 04:48:50;;;;;;;5.38;3.80;;;8.40;99.90;;;;;;5037240;28;20487;-80
2021/11/03 04:51:18;;;;;;;7.50;4.35;;;8.80;99.90;;;;;;5037107;28;20347;-80
2021/11/03 04:53:44;;;;;;;6.10;4.37;;;8.80;99.90;;;;;;5066698;22;20259;-79
2021/11/03 04:56:15;;;;;;;6.27;4.27;;;8.70;99.90;;;;;;5056800;28;20461;-79
2021/11/03 04:58:42;;;;;;;7.47;4.40;;;8.60;99.90;;;;;;5056213;28;20474;-78
2021/11/03 05:01:09;;;;;;;8.30;4.70;;;8.70;99.90;;;;;;5055257;28;20923;-79
2021/11/03 05:03:36;;;;;;;6.77;4.50;;;8.80;99.90;;;;;;5054494;28;20478;-79
2021/11/03 05:06:05;;;;;;;5.60;3.88;;;8.70;99.90;;;;;;5056465;28;20446;-79
2021/11/03 05:08:32;;;;;;;7.20;3.90;;;8.80;99.90;;;;;;5056369;28;20225;-79
2021/11/03 05:10:59;;;;;;;5.73;4.20;;;8.70;99.90;;;;;;5057255;28;20491;-79
2021/11/03 05:13:27;;;;;;;8.23;5.00;;;8.80;99.90;;;;;;5057616;28;20450;-79
2021/11/03 05:15:54;;;;;;;7.40;4.60;;;8.90;99.90;;;;;;5057839;28;20447;-79
2021/11/03 05:18:20;;;;;;;6.53;4.35;;;8.80;99.90;;;;;;5055856;28;21008;-80
2021/11/03 05:20:48;;;;;;;5.67;3.93;;;8.70;99.90;;;;;;5056912;28;20657;-79
2021/11/03 05:23:14;;;;;;;10.13;4.50;;;9.00;99.90;;;;;;5061254;28;20450;-79
2021/11/03 05:25:41;;;;;;;6.30;4.47;;;8.90;99.90;;;;;;5063530;28;20459;-79
2021/11/03 05:28:08;;;;;;;6.50;4.20;;;8.90;99.90;;;;;;5061597;28;20483;-79
2021/11/03 05:30:37;;;;;;;7.80;4.60;;;8.90;99.90;;;;;;5060762;28;20461;-79
2021/11/03 05:33:04;;;;;;;6.10;4.30;;;8.90;99.90;;;;;;5062006;28;20871;-79
2021/11/03 05:35:31;;;;;;;6.45;4.32;;;8.60;99.90;;;;;;5061698;28;20457;-79
2021/11/03 05:37:58;;;;;;;7.55;4.50;;;8.80;99.90;;;;;;5061072;28;20307;-79
2021/11/03 05:40:27;;;;;;;6.23;4.03;;;8.90;99.90;;;;;;5071843;28;20208;-79
2021/11/03 05:42:54;;;;;;;6.35;4.40;;;8.80;99.90;;;;;;5062559;28;20425;-79
2021/11/03 05:45:21;;;;;;;6.57;4.27;;;8.80;99.90;;;;;;5065743;28;20299;-78
2021/11/03 05:47:49;;;;;;;7.15;5.55;;;8.90;99.90;;;;;;5062391;28;20497;-78
2021/11/03 05:50:20;;;;;;;6.10;4.93;;;8.70;99.90;;;;;;5063900;28;20205;-79
2021/11/03 05:52:47;;;;;;;5.60;3.60;;;8.90;99.90;;;;;;5060527;28;20441;-79
2021/11/03 05:55:15;;;;;;;5.73;3.83;;;9.10;99.90;;;;;;5060600;28;20491;-79
2021/11/03 05:57:43;;;;;;;5.20;3.73;;;9.30;99.90;;;;;;5060874;28;20421;-79
2021/11/03 06:00:14;;;;;;;10.47;5.10;;;9.30;99.90;;;;;;5061004;28;20456;-79
2021/11/03 06:02:41;;;;;;;10.33;4.10;;;9.20;99.90;;;;;;5060678;28;20443;-79
2021/11/03 06:05:10;;;;;;;7.20;4.83;;;8.80;99.90;;;;;;5058653;28;20481;-78
2021/11/03 06:07:39;;;;;;;6.60;4.70;;;8.90;99.90;;;;;;5056565;28;20490;-79
2021/11/03 06:10:09;;;;;;;6.93;4.30;;;8.90;99.90;;;;;;5060038;28;20493;-80
2021/11/03 06:12:36;;;;;;;6.37;3.83;;;8.60;99.90;;;;;;5058972;28;20464;-78
2021/11/03 06:15:04;;;;;;;8.00;5.00;;;9.00;99.90;;;;;;5058563;28;20449;-78
2021/11/03 06:17:31;;;;;;;8.00;4.50;;;9.00;99.90;;;;;;5059549;28;20455;-79
2021/11/03 06:19:58;;;;;;;8.87;4.80;;;8.70;99.90;;;;;;5060501;28;20543;-79
2021/11/03 06:22:26;;;;;;;7.00;4.63;;;8.80;99.90;;;;;;5059472;28;20550;-78
2021/11/03 06:24:59;;;;;;;6.22;3.90;;;9.00;99.90;;;;;;5061477;28;20458;-80
2021/11/03 06:27:27;;;;;;;8.10;4.53;;;9.00;99.90;;;;;;5070111;28;20219;-78
2021/11/03 06:29:53;;;;;;;5.60;3.77;;;9.10;99.90;;;;;;5060230;28;20288;-79
2021/11/03 06:32:20;;;;;;;6.07;4.40;;;9.00;99.90;;;;;;5057410;28;20462;-78
2021/11/03 06:34:47;;;;;;;7.40;5.27;;;8.90;99.90;;;;;;5064828;28;20517;-78
2021/11/03 06:37:14;;;;;;;7.90;4.40;;;9.10;99.90;;;;;;5060512;28;20765;-78
2021/11/03 06:39:42;;;;;;;6.50;4.30;;;9.20;99.90;;;;;;5058531;28;20451;-78
2021/11/03 06:42:09;;;;;;;7.07;3.73;;;9.30;99.90;;;;;;5061664;28;20519;-78
2021/11/03 06:44:36;;;;;;;6.90;4.40;;;9.40;99.90;;;;;;5064414;28;20984;-78
2021/11/03 06:47:03;;;;;;;6.73;3.20;;;9.60;99.90;;;;;;5058200;28;20534;-80
2021/11/03 06:49:30;;;;;;;7.10;4.57;;;9.70;99.90;;;;;;5057788;28;20468;-77
2021/11/03 06:51:56;;;;;;;5.03;3.47;;;9.60;99.90;;;;;;5056849;28;20456;-78
2021/11/03 06:54:23;;;;;;;7.20;4.17;;;9.80;99.90;;;;;;5056517;28;20461;-81
2021/11/03 06:56:52;;;;;;;6.43;3.30;;;9.80;99.90;;;;;;5062217;28;20468;-79
2021/11/03 06:59:20;;;;;;;5.57;3.23;;;9.70;99.90;;;;;;5057793;28;20455;-78
2021/11/03 07:01:47;;;;;;;5.77;3.43;;;9.80;99.90;;;;;;5058944;28;20456;-82
2021/11/03 07:04:15;;;;;;;5.97;3.47;;;9.70;99.90;;;;;;5061391;28;20446;-76
2021/11/03 07:06:43;;;;;;;5.70;3.77;;;9.50;99.90;;;;;;5059102;28;20483;-78
2021/11/03 07:09:10;;;;;;;6.93;3.90;;;9.50;99.90;;;;;;5058463;28;20486;-80
2021/11/03 07:11:37;;;;;;;6.03;4.60;;;9.60;99.90;;;;;;5059236;28;20446;-79
2021/11/03 07:14:06;;;;;;;6.50;3.97;;;9.60;99.90;;;;;;5058282;28;20572;-81
2021/11/03 07:16:33;;;;;;;5.70;3.90;;;9.60;99.90;;;;;;5057688;28;20456;-78
2021/11/03 07:19:01;;;;;;;7.63;3.67;;;9.80;99.90;;;;;;5058236;28;20466;-78
2021/11/03 07:21:27;;;;;;;7.33;3.60;;;9.80;99.90;;;;;;5056808;28;20455;-78
2021/11/03 07:23:54;;;;;;;5.90;3.90;;;9.90;99.90;;;;;;5056727;28;20486;-77
2021/11/03 07:26:21;;;;;;;5.63;4.10;;;9.90;99.90;;;;;;5054711;28;20429;-76
2021/11/03 07:28:48;;;;;;;5.37;4.00;;;9.80;99.90;;;;;;5056515;28;20486;-78
2021/11/03 07:31:17;;;;;;;5.53;3.50;;;9.70;99.90;;;;;;5056146;28;20451;-78
2021/11/03 07:33:44;;;;;;;6.53;3.63;;;9.90;99.90;;;;;;5064833;28;20514;-79
2021/11/03 07:36:16;;;;;;;6.77;4.80;;;9.90;99.90;;;;;;5058429;28;21013;-78
2021/11/03 07:38:44;;;;;;;7.07;4.17;;;9.80;99.90;;;;;;5057434;28;20428;-76
2021/11/03 07:41:11;;;;;;;6.90;3.70;;;10.00;99.90;;;;;;5055408;28;20954;-78
2021/11/03 07:43:42;;;;;;;9.10;4.40;;;10.10;99.90;;;;;;5054504;28;20483;-76
2021/11/03 07:46:10;;;;;;;7.90;3.80;;;10.10;99.90;;;;;;5057664;28;20479;-77
2021/11/03 07:48:38;;;;;;;6.30;3.77;;;10.20;99.90;;;;;;5054677;28;20519;-77
2021/11/03 07:51:09;;;;;;;8.30;3.70;;;10.10;99.90;;;;;;5054021;28;20537;-78
2021/11/03 07:53:37;;;;;;;10.30;5.50;;;9.90;99.90;;;;;;5056761;28;20518;-77
2021/11/03 07:56:08;;;;;;;7.43;4.83;;;9.90;99.90;;;;;;5053994;28;20488;-77
2021/11/03 07:58:38;;;;;;;5.90;3.87;;;10.00;99.90;;;;;;5054324;28;20811;-77
2021/11/03 08:01:06;;;;;;;5.30;3.60;;;10.00;99.90;;;;;;5054272;28;20975;-79
2021/11/03 08:03:33;;;;;;;6.40;4.03;;;10.00;99.90;;;;;;5055824;28;20480;-78
2021/11/03 08:06:01;;;;;;;9.80;4.70;;;10.20;99.90;;;;;;5054693;28;20418;-78
2021/11/03 08:08:31;;;;;;;6.97;4.40;;;10.20;99.90;;;;;;5055213;28;20573;-77
2021/11/03 08:10:59;;;;;;;8.20;3.50;;;10.30;99.90;;;;;;5054771;28;20483;-78
2021/11/03 08:13:30;;;;;;;6.37;4.00;;;10.40;99.90;;;;;;5054030;28;20478;-77
2021/11/03 08:15:59;;;;;;;5.87;3.90;;;10.40;99.90;;;;;;5053704;28;20447;-77
2021/11/03 08:18:31;;;;;;;9.03;4.20;;;10.40;99.90;;;;;;5053643;28;20456;-81
2021/11/03 08:20:57;;;;;;;5.50;3.57;;;10.40;99.90;;;;;;5054078;28;20530;-77
2021/11/03 08:23:26;;;;;;;7.60;3.90;;;10.50;99.90;;;;;;5055414;28;21049;-77
2021/11/03 08:25:54;;;;;;;7.97;3.40;;;10.70;99.90;;;;;;5055325;28;20462;-77
2021/11/03 08:28:21;;;;;;;7.37;3.27;;;10.70;99.90;;;;;;5056468;28;20605;-78
2021/11/03 08:30:50;;;;;;;6.33;3.30;;;10.70;99.90;;;;;;5056342;28;20796;-78
2021/11/03 08:33:21;;;;;;;5.37;3.60;;;10.70;99.90;;;;;;5055741;28;20835;-81
2021/11/03 08:35:50;;;;;;;5.07;3.13;;;10.70;99.90;;;;;;5055096;28;20462;-78
2021/11/03 08:38:21;;;;;;;5.20;3.20;;;10.80;99.90;;;;;;5056748;28;20419;-78
2021/11/03 08:40:50;;;;;;;5.90;3.73;;;10.70;99.90;;;;;;5056085;28;20886;-81
2021/11/03 08:43:23;;;;;;;6.40;3.63;;;10.70;99.90;;;;;;5056318;28;20458;-80
2021/11/03 08:45:50;;;;;;;6.80;3.43;;;10.70;99.90;;;;;;5055974;28;20442;-78
2021/11/03 08:48:18;;;;;;;5.70;3.60;;;10.60;99.90;;;;;;5054906;28;20484;-77
2021/11/03 08:50:47;;;;;;;6.07;3.63;;;10.50;99.90;;;;;;5054121;28;20475;-78
2021/11/03 08:53:15;;;;;;;5.53;3.23;;;10.60;99.90;;;;;;5052990;28;20430;-77
2021/11/03 08:55:42;;;;;;;7.10;4.13;;;10.50;99.90;;;;;;5055667;28;20451;-78
2021/11/03 08:58:13;;;;;;;5.47;3.30;;;10.50;99.90;;;;;;5060102;28;20464;-77
2021/11/03 09:00:41;;;;;;;8.87;5.40;;;10.60;99.90;;;;;;5060354;28;20954;-76
2021/11/03 09:03:08;;;;;;;6.07;3.50;;;10.60;99.90;;;;;;5061502;28;20451;-78
2021/11/03 09:05:35;;;;;;;6.63;4.30;;;10.60;99.90;;;;;;5060741;28;20458;-78
2021/11/03 09:08:02;;;;;;;6.70;3.30;;;10.60;99.90;;;;;;5062885;28;20520;-78
2021/11/03 09:10:32;;;;;;;8.33;4.40;;;10.60;99.90;;;;;;5063284;28;20429;-78
2021/11/03 09:12:59;;;;;;;6.27;3.80;;;10.50;99.90;;;;;;5061700;28;20494;-77
2021/11/03 09:15:28;;;;;;;6.80;3.70;;;10.70;99.90;;;;;;5062613;28;20448;-77
2021/11/03 09:17:55;;;;;;;6.50;3.77;;;10.80;99.90;;;;;;5061115;28;20462;-78
2021/11/03 09:20:23;;;;;;;9.27;4.83;;;10.90;99.90;;;;;;5062751;28;20482;-78
2021/11/03 09:22:50;;;;;;;12.03;4.10;;;10.90;99.90;;;;;;5063778;28;20441;-78
2021/11/03 09:25:22;;;;;;;5.67;3.07;;;11.00;99.90;;;;;;5064415;28;20438;-79
2021/11/03 09:27:49;;;;;;;6.43;3.00;;;11.30;99.90;;;;;;5062912;28;20428;-80
2021/11/03 09:30:20;;;;;;;6.27;3.50;;;11.50;99.90;;;;;;5062563;28;20499;-79
2021/11/03 09:32:52;;;;;;;5.60;3.20;;;11.50;99.90;;;;;;5070825;28;20442;-80
2021/11/03 09:35:20;;;;;;;6.57;3.30;;;11.50;99.90;;;;;;5062545;28;20443;-78
2021/11/03 09:37:46;;;;;;;5.07;3.30;;;11.50;99.90;;;;;;5060913;28;20919;-78
2021/11/03 09:40:24;;;;;;;5.27;3.20;;;11.60;99.90;;;;;;5062077;28;20438;-79
2021/11/03 09:42:52;;;;;;;4.70;2.40;;;11.80;99.90;;;;;;5062563;28;20414;-79
2021/11/03 09:45:23;;;;;;;5.07;2.63;;;11.90;99.90;;;;;;5061691;28;20435;-78
2021/11/03 09:48:02;;;;;;;6.60;2.83;;;11.90;99.90;;;;;;5062950;28;20742;-79
2021/11/03 09:50:34;;;;;;;5.40;2.53;;;12.00;99.90;;;;;;5062141;28;20566;-79
2021/11/03 09:53:04;;;;;;;4.87;2.20;;;12.00;99.90;;;;;;5062481;28;20522;-79
2021/11/03 09:55:33;;;;;;;3.57;2.37;;;12.10;99.90;;;;;;5062081;28;20536;-79
2021/11/03 09:58:14;;;;;;;5.70;2.20;;;12.10;99.90;;;;;;5062111;28;20444;-78
2021/11/03 10:00:48;;;;;;;5.80;2.90;;;12.20;99.90;;;;;;5062187;28;20492;-78
2021/11/03 10:03:30;;;;;;;7.07;2.77;;;12.30;99.90;;;;;;5064578;28;20411;-78
2021/11/03 10:06:04;;;;;;;4.33;2.80;;;12.30;99.90;;;;;;5068035;28;20506;-78
2021/11/03 10:08:37;;;;;;;5.00;3.00;;;12.20;99.90;;;;;;5063462;28;20575;-79
2021/11/03 10:11:14;;;;;;;5.70;2.57;;;12.20;99.90;;;;;;5061346;28;20411;-76
2021/11/03 10:13:41;;;;;;;6.00;2.93;;;12.30;99.90;;;;;;5062810;28;21019;-79
2021/11/03 10:16:27;;;;;;;6.50;3.50;;;12.30;99.90;;;;;;5058985;28;20480;-79
2021/11/03 10:19:05;;;;;;;5.80;2.63;;;12.10;99.90;;;;;;5058610;28;20519;-79
2021/11/03 10:21:40;;;;;;;4.90;2.67;;;12.20;99.90;;;;;;5061639;28;20447;-79
2021/11/03 10:24:24;;;;;;;6.63;2.47;;;12.20;99.90;;;;;;5072785;28;20485;-78
2021/11/03 10:26:54;;;;;;;5.27;2.33;;;12.10;99.90;;;;;;5063334;28;20464;-79
2021/11/03 10:29:27;;;;;;;6.03;3.50;;;12.10;99.90;;;;;;5058826;28;20500;-79
2021/11/03 10:31:57;;;;;;;6.20;3.13;;;12.10;99.90;;;;;;5058898;28;20876;-79
2021/11/03 10:34:28;;;;;;;5.97;2.90;;;12.00;99.90;;;;;;5059321;28;20501;-79
2021/11/03 10:37:10;;;;;;;5.47;2.47;;;12.00;99.90;;;;;;5058038;28;20509;-79
2021/11/03 10:39:44;;;;;;;7.50;2.83;;;12.20;99.90;;;;;;5059958;28;20406;-79
2021/11/03 10:42:19;;;;;;;5.00;3.13;;;12.40;99.90;;;;;;5060084;28;20522;-79
2021/11/03 10:44:47;;;;;;;5.00;2.67;;;12.40;99.90;;;;;;5061537;28;20446;-80
2021/11/03 10:47:17;;;;;;;5.03;2.60;;;12.50;99.90;;;;;;5057484;28;20442;-78
2021/11/03 10:49:55;;;;;;;5.10;2.33;;;12.50;99.90;;;;;;5066200;28;20586;-79
2021/11/03 10:52:25;;;;;;;4.60;2.43;;;12.40;99.90;;;;;;5057748;28;20514;-79
2021/11/03 10:54:57;;;;;;;4.70;2.30;;;12.40;99.90;;;;;;5072321;22;20483;-83
2021/11/03 10:57:32;;;;;;;7.43;3.20;;;12.50;99.90;;;;;;5046477;28;20428;-84
2021/11/03 11:00:18;;;;;;;10.60;4.10;;;12.40;99.90;;;;;;5042110;28;20454;-84
2021/11/03 11:02:51;;;;;;;5.17;2.73;;;12.50;99.90;;;;;;5042597;28;20768;-84
2021/11/03 11:05:23;;;;;;;7.03;2.60;;;12.50;99.90;;;;;;5042672;28;20523;-85
2021/11/03 11:07:54;;;;;;;7.50;3.00;;;12.60;99.90;;;;;;5042503;28;20404;-84
2021/11/03 11:10:31;;;;;;;4.50;2.57;;;12.80;99.90;;;;;;5042342;28;20547;-84
2021/11/03 11:12:59;;;;;;;7.30;2.97;;;12.80;99.90;;;;;;5047296;28;20502;-84
2021/11/03 11:15:30;;;;;;;3.83;2.03;;;12.70;99.90;;;;;;5048505;28;20541;-86
2021/11/03 11:18:04;;;;;;;6.40;3.00;;;12.70;99.90;;;;;;5042220;28;20750;-85
2021/11/03 11:20:39;;;;;;;4.40;2.20;;;12.60;99.90;;;;;;5042661;28;20412;-85
2021/11/03 11:23:16;;;;;;;5.17;2.30;;;12.60;99.90;;;;;;5049262;28;20502;-85
2021/11/03 11:26:03;;;;;;;8.80;2.93;;;12.60;99.90;;;;;;5045872;28;20483;-83
2021/11/03 11:28:37;;;;;;;6.30;2.90;;;12.50;99.90;;;;;;5044524;28;20525;-83
2021/11/03 11:31:11;;;;;;;7.93;2.90;;;12.50;99.90;;;;;;5048567;28;20418;-84
2021/11/03 11:33:41;;;;;;;5.13;3.10;;;12.50;99.90;;;;;;5055200;28;20423;-81
2021/11/03 11:36:25;;;;;;;7.40;2.70;;;12.50;99.90;;;;;;5054001;28;20426;-83
2021/11/03 11:39:05;;;;;;;5.80;3.70;;;12.50;99.90;;;;;;5054132;28;20423;-82
2021/11/03 11:41:35;;;;;;;5.77;2.37;;;12.40;99.90;;;;;;5054030;28;20480;-83
2021/11/03 11:44:07;;;;;;;5.80;2.20;;;12.50;99.90;;;;;;5039215;28;20531;-83
2021/11/03 11:46:35;;;;;;;4.33;2.13;;;12.80;99.90;;;;;;5039270;28;20499;-83
2021/11/03 11:49:09;;;;;;;3.90;1.93;;;12.90;99.90;;;;;;5038636;28;20464;-83
2021/11/03 11:51:43;;;;;;;5.90;2.30;;;12.70;99.90;;;;;;5038704;28;20434;-84
2021/11/03 11:54:30;;;;;;;5.50;2.00;;;12.60;99.90;;;;;;5038942;28;20477;-84
2021/11/03 11:57:24;;;;;;;5.73;1.70;;;12.40;99.90;;;;;;5048692;28;20423;-84
2021/11/03 12:00:02;;;;;;;4.57;2.30;;;12.30;99.90;;;;;;5053001;28;20490;-83
2021/11/03 12:02:32;;;;;;;9.20;3.90;;;12.00;99.90;;;;;;5048062;28;20425;-84
2021/11/03 12:05:14;;;;;;;9.10;5.07;;;12.10;99.90;;;;;;5040122;28;20486;-81
2021/11/03 12:07:43;;;;;;;6.77;3.60;;;12.00;99.90;;;;;;5043685;28;20464;-78
2021/11/03 12:10:30;;;;;;;6.73;2.33;;;12.00;99.90;;;;;;5037380;28;20520;-78
2021/11/03 12:13:18;;;;;;;5.70;2.17;;;12.10;99.90;;;;;;5033154;28;20750;-77
2021/11/03 12:16:02;;;;;;;8.93;3.67;;;12.10;99.90;;;;;;5032679;28;20480;-78
2021/11/03 12:18:48;;;;;;;5.20;2.40;;;12.20;99.90;;;;;;5032739;28;20776;-78
2021/11/03 12:21:32;;;;;;;5.40;3.77;;;12.40;99.90;;;;;;5032953;28;20434;-78
2021/11/03 12:24:30;;;;;;;3.77;2.03;;;12.40;99.90;;;;;;5032235;28;20997;-78
2021/11/03 12:27:32;;;;;;;4.80;2.07;;;12.40;99.90;;;;;;5034048;28;20456;-77
2021/11/03 12:30:26;;;;;;;5.73;2.27;;;12.60;99.90;;;;;;5032232;28;20574;-77
2021/11/03 12:33:01;;;;;;;5.30;2.00;;;12.80;99.90;;;;;;5031789;28;20428;-76
2021/11/03 12:35:59;;;;;;;4.23;1.90;;;12.80;99.90;;;;;;5031977;28;20500;-76
2021/11/03 12:38:51;;;;;;;5.03;2.47;;;12.70;99.90;;;;;;5037605;28;20437;-84
2021/11/03 12:41:40;;;;;;;11.23;2.10;;;12.80;99.90;;;;;;5042752;28;20770;-85
2021/11/03 12:44:17;;;;;;;4.57;1.93;;;12.80;99.90;;;;;;5040965;28;20473;-82
2021/11/03 12:46:44;;;;;;;3.43;1.57;;;12.90;99.90;;;;;;5043316;28;20412;-84
2021/11/03 12:49:17;;;;;;;4.73;1.90;;;12.90;99.90;;;;;;5040030;28;20453;-85
2021/11/03 12:51:49;;;;;;;3.70;1.90;;;12.90;99.90;;;;;;5040429;28;20416;-85
2021/11/03 12:54:20;;;;;;;5.00;2.00;;;12.80;99.90;;;;;;5040301;28;20472;-85
2021/11/03 12:56:57;;;;;;;6.10;2.90;;;12.70;99.90;;;;;;5039078;28;20435;-82
2021/11/03 12:59:27;;;;;;;11.00;3.07;;;12.70;99.90;;;;;;5040431;28;20458;-83
2021/11/03 13:01:56;;;;;;;3.70;1.90;;;12.70;99.90;;;;;;5039591;28;21037;-83
2021/11/03 13:04:27;;;;;;;4.97;1.93;;;12.80;99.90;;;;;;5039782;28;20483;-85
2021/11/03 13:06:57;;;;;;;6.73;3.13;;;12.90;99.90;;;;;;5039938;28;20416;-84
2021/11/03 13:09:32;;;;;;;7.63;3.00;;;12.60;99.90;;;;;;5039699;28;20519;-84